sensor_id;sensor_type;location;lat;lon;timestamp;P1;durP1;ratioP1;P2;durP2;ratioP2
11854;SDS011;5987;53.140;8.904;2023-02-15T00:01:27;27.40;;;15.63;;
11854;SDS011;5987;53.140;8.904;2023-02-15T00:04:30;26.73;;;15.53;;
11854;SDS011;5987;53.140;8.904;2023-02-15T00:07:48;26.03;;;15.10;;
11854;SDS011;5987;53.140;8.904;2023-02-15T00:10:52;24.07;;;14.67;;
11854;SDS011;5987;53.140;8.904;2023-02-15T00:13:56;26.50;;;15.43;;
11854;SDS011;5987;53.140;8.904;2023-02-15T00:17:01;23.53;;;15.30;;
11854;SDS011;5987;53.140;8.904;2023-02-15T00:20:06;26.03;;;15.60;;
11854;SDS011;5987;53.140;8.904;2023-02-15T00:23:12;23.40;;;14.43;;
11854;SDS011;5987;53.140;8.904;2023-02-15T00:26:15;26.83;;;14.37;;
11854;SDS011;5987;53.140;8.904;2023-02-15T00:29:19;25.53;;;15.13;;
11854;SDS011;5987;53.140;8.904;2023-02-15T00:32:25;24.10;;;14.60;;
11854;SDS011;5987;53.140;8.904;2023-02-15T00:35:29;24.50;;;14.20;;
11854;SDS011;5987;53.140;8.904;2023-02-15T00:38:33;25.00;;;14.90;;
11854;SDS011;5987;53.140;8.904;2023-02-15T00:41:38;24.67;;;14.20;;
11854;SDS011;5987;53.140;8.904;2023-02-15T00:44:42;24.73;;;14.53;;
11854;SDS011;5987;53.140;8.904;2023-02-15T00:47:47;26.10;;;14.43;;
11854;SDS011;5987;53.140;8.904;2023-02-15T00:50:52;29.20;;;15.63;;
11854;SDS011;5987;53.140;8.904;2023-02-15T00:53:58;26.37;;;15.00;;
11854;SDS011;5987;53.140;8.904;2023-02-15T00:57:02;32.60;;;15.67;;
11854;SDS011;5987;53.140;8.904;2023-02-15T01:00:06;36.37;;;16.90;;
11854;SDS011;5987;53.140;8.904;2023-02-15T01:03:13;82.43;;;19.83;;
11854;SDS011;5987;53.140;8.904;2023-02-15T01:06:19;145.53;;;26.40;;
11854;SDS011;5987;53.140;8.904;2023-02-15T01:09:23;121.90;;;21.23;;
11854;SDS011;5987;53.140;8.904;2023-02-15T01:12:27;119.90;;;21.03;;
11854;SDS011;5987;53.140;8.904;2023-02-15T01:15:33;112.97;;;21.47;;
11854;SDS011;5987;53.140;8.904;2023-02-15T01:18:39;112.80;;;20.13;;
11854;SDS011;5987;53.140;8.904;2023-02-15T01:21:43;186.00;;;25.63;;
11854;SDS011;5987;53.140;8.904;2023-02-15T01:24:48;126.80;;;20.40;;
11854;SDS011;5987;53.140;8.904;2023-02-15T01:27:52;143.40;;;22.27;;
11854;SDS011;5987;53.140;8.904;2023-02-15T01:30:56;131.43;;;25.20;;
11854;SDS011;5987;53.140;8.904;2023-02-15T01:34:02;123.10;;;21.87;;
11854;SDS011;5987;53.140;8.904;2023-02-15T01:37:06;133.17;;;25.10;;
11854;SDS011;5987;53.140;8.904;2023-02-15T01:40:11;154.73;;;26.17;;
11854;SDS011;5987;53.140;8.904;2023-02-15T01:43:18;146.07;;;27.43;;
11854;SDS011;5987;53.140;8.904;2023-02-15T01:46:24;206.73;;;30.20;;
11854;SDS011;5987;53.140;8.904;2023-02-15T01:49:44;75.33;;;21.83;;
11854;SDS011;5987;53.140;8.904;2023-02-15T01:52:51;126.80;;;25.43;;
11854;SDS011;5987;53.140;8.904;2023-02-15T01:56:02;174.07;;;29.03;;
11854;SDS011;5987;53.140;8.904;2023-02-15T01:59:14;142.03;;;26.60;;
11854;SDS011;5987;53.140;8.904;2023-02-15T02:02:24;171.23;;;31.27;;
11854;SDS011;5987;53.140;8.904;2023-02-15T02:05:31;128.43;;;25.50;;
11854;SDS011;5987;53.140;8.904;2023-02-15T02:08:36;91.27;;;23.43;;
11854;SDS011;5987;53.140;8.904;2023-02-15T02:11:42;139.10;;;23.03;;
11854;SDS011;5987;53.140;8.904;2023-02-15T02:14:51;162.03;;;25.93;;
11854;SDS011;5987;53.140;8.904;2023-02-15T02:18:32;90.30;;;21.80;;
11854;SDS011;5987;53.140;8.904;2023-02-15T02:26:11;89.03;;;22.43;;
11854;SDS011;5987;53.140;8.904;2023-02-15T02:30:06;96.60;;;24.77;;
11854;SDS011;5987;53.140;8.904;2023-02-15T02:33:57;73.77;;;21.13;;
11854;SDS011;5987;53.140;8.904;2023-02-15T02:37:13;67.27;;;21.20;;
11854;SDS011;5987;53.140;8.904;2023-02-15T02:40:36;53.07;;;19.57;;
11854;SDS011;5987;53.140;8.904;2023-02-15T02:44:02;83.97;;;24.20;;
11854;SDS011;5987;53.140;8.904;2023-02-15T02:47:36;77.60;;;19.53;;
11854;SDS011;5987;53.140;8.904;2023-02-15T02:51:08;44.97;;;17.97;;
11854;SDS011;5987;53.140;8.904;2023-02-15T02:54:12;67.07;;;20.57;;
11854;SDS011;5987;53.140;8.904;2023-02-15T02:57:16;69.93;;;20.47;;
11854;SDS011;5987;53.140;8.904;2023-02-15T03:00:25;83.37;;;22.53;;
11854;SDS011;5987;53.140;8.904;2023-02-15T03:04:20;60.97;;;21.77;;
11854;SDS011;5987;53.140;8.904;2023-02-15T03:08:35;63.93;;;18.87;;
11854;SDS011;5987;53.140;8.904;2023-02-15T03:12:47;74.67;;;19.33;;
11854;SDS011;5987;53.140;8.904;2023-02-15T03:16:52;57.10;;;18.47;;
11854;SDS011;5987;53.140;8.904;2023-02-15T03:20:56;61.43;;;17.40;;
11854;SDS011;5987;53.140;8.904;2023-02-15T03:25:20;59.37;;;19.20;;
11854;SDS011;5987;53.140;8.904;2023-02-15T03:29:18;73.20;;;19.70;;
11854;SDS011;5987;53.140;8.904;2023-02-15T03:33:32;86.60;;;20.73;;
11854;SDS011;5987;53.140;8.904;2023-02-15T03:37:50;80.77;;;20.90;;
11854;SDS011;5987;53.140;8.904;2023-02-15T03:42:04;78.60;;;19.93;;
11854;SDS011;5987;53.140;8.904;2023-02-15T03:46:14;74.10;;;19.23;;
11854;SDS011;5987;53.140;8.904;2023-02-15T03:50:21;117.17;;;23.47;;
11854;SDS011;5987;53.140;8.904;2023-02-15T03:54:26;89.67;;;20.40;;
11854;SDS011;5987;53.140;8.904;2023-02-15T03:58:31;154.10;;;24.63;;
11854;SDS011;5987;53.140;8.904;2023-02-15T04:02:34;178.30;;;27.07;;
11854;SDS011;5987;53.140;8.904;2023-02-15T04:06:51;144.17;;;24.07;;
11854;SDS011;5987;53.140;8.904;2023-02-15T04:09:58;104.47;;;23.23;;
11854;SDS011;5987;53.140;8.904;2023-02-15T04:13:19;84.40;;;20.03;;
11854;SDS011;5987;53.140;8.904;2023-02-15T04:16:26;102.83;;;21.87;;
11854;SDS011;5987;53.140;8.904;2023-02-15T04:19:31;119.23;;;21.20;;
11854;SDS011;5987;53.140;8.904;2023-02-15T04:22:53;64.30;;;18.13;;
11854;SDS011;5987;53.140;8.904;2023-02-15T04:26:14;107.63;;;21.77;;
11854;SDS011;5987;53.140;8.904;2023-02-15T04:29:18;105.77;;;20.73;;
11854;SDS011;5987;53.140;8.904;2023-02-15T04:32:24;101.40;;;20.23;;
11854;SDS011;5987;53.140;8.904;2023-02-15T04:35:28;61.27;;;18.80;;
11854;SDS011;5987;53.140;8.904;2023-02-15T04:38:33;106.17;;;23.57;;
11854;SDS011;5987;53.140;8.904;2023-02-15T04:41:37;82.60;;;19.33;;
11854;SDS011;5987;53.140;8.904;2023-02-15T04:44:41;61.57;;;17.07;;
11854;SDS011;5987;53.140;8.904;2023-02-15T04:47:46;124.43;;;22.73;;
11854;SDS011;5987;53.140;8.904;2023-02-15T04:50:50;107.50;;;22.43;;
11854;SDS011;5987;53.140;8.904;2023-02-15T04:53:54;93.93;;;20.43;;
11854;SDS011;5987;53.140;8.904;2023-02-15T04:56:58;138.03;;;20.57;;
11854;SDS011;5987;53.140;8.904;2023-02-15T05:00:02;93.93;;;19.77;;
11854;SDS011;5987;53.140;8.904;2023-02-15T05:03:09;141.73;;;21.77;;
11854;SDS011;5987;53.140;8.904;2023-02-15T05:06:12;100.57;;;20.03;;
11854;SDS011;5987;53.140;8.904;2023-02-15T05:09:16;76.97;;;19.20;;
11854;SDS011;5987;53.140;8.904;2023-02-15T05:12:20;104.77;;;21.27;;
11854;SDS011;5987;53.140;8.904;2023-02-15T05:15:24;82.03;;;18.13;;
11854;SDS011;5987;53.140;8.904;2023-02-15T05:18:29;52.97;;;17.97;;
11854;SDS011;5987;53.140;8.904;2023-02-15T05:21:33;60.43;;;17.17;;
11854;SDS011;5987;53.140;8.904;2023-02-15T05:24:37;91.87;;;20.40;;
11854;SDS011;5987;53.140;8.904;2023-02-15T05:28:03;110.60;;;20.13;;
11854;SDS011;5987;53.140;8.904;2023-02-15T05:31:22;139.33;;;22.03;;
11854;SDS011;5987;53.140;8.904;2023-02-15T05:34:28;128.53;;;21.03;;
11854;SDS011;5987;53.140;8.904;2023-02-15T05:37:32;111.93;;;19.63;;
11854;SDS011;5987;53.140;8.904;2023-02-15T05:40:36;77.67;;;18.47;;
11854;SDS011;5987;53.140;8.904;2023-02-15T05:43:40;74.77;;;18.50;;
11854;SDS011;5987;53.140;8.904;2023-02-15T05:46:45;84.57;;;19.20;;
11854;SDS011;5987;53.140;8.904;2023-02-15T05:49:50;74.80;;;19.43;;
11854;SDS011;5987;53.140;8.904;2023-02-15T05:52:54;90.83;;;19.00;;
11854;SDS011;5987;53.140;8.904;2023-02-15T05:55:58;127.40;;;19.97;;
11854;SDS011;5987;53.140;8.904;2023-02-15T05:59:04;79.87;;;16.97;;
11854;SDS011;5987;53.140;8.904;2023-02-15T06:02:08;71.10;;;17.77;;
11854;SDS011;5987;53.140;8.904;2023-02-15T06:05:13;84.40;;;19.80;;
11854;SDS011;5987;53.140;8.904;2023-02-15T06:08:17;93.97;;;18.77;;
11854;SDS011;5987;53.140;8.904;2023-02-15T06:11:22;75.53;;;17.63;;
11854;SDS011;5987;53.140;8.904;2023-02-15T06:14:25;85.00;;;18.87;;
11854;SDS011;5987;53.140;8.904;2023-02-15T06:17:29;51.47;;;16.50;;
11854;SDS011;5987;53.140;8.904;2023-02-15T06:20:35;117.17;;;21.53;;
11854;SDS011;5987;53.140;8.904;2023-02-15T06:23:39;94.90;;;19.67;;
11854;SDS011;5987;53.140;8.904;2023-02-15T06:26:42;85.27;;;18.43;;
11854;SDS011;5987;53.140;8.904;2023-02-15T06:29:46;95.93;;;19.83;;
11854;SDS011;5987;53.140;8.904;2023-02-15T06:32:50;62.30;;;18.43;;
11854;SDS011;5987;53.140;8.904;2023-02-15T06:35:56;90.73;;;17.57;;
11854;SDS011;5987;53.140;8.904;2023-02-15T06:39:00;104.27;;;19.97;;
11854;SDS011;5987;53.140;8.904;2023-02-15T06:42:04;92.80;;;19.40;;
11854;SDS011;5987;53.140;8.904;2023-02-15T06:45:08;88.07;;;18.70;;
11854;SDS011;5987;53.140;8.904;2023-02-15T06:48:13;58.07;;;17.73;;
11854;SDS011;5987;53.140;8.904;2023-02-15T06:51:18;69.80;;;17.13;;
11854;SDS011;5987;53.140;8.904;2023-02-15T06:54:22;98.93;;;18.13;;
11854;SDS011;5987;53.140;8.904;2023-02-15T06:57:26;59.30;;;18.20;;
11854;SDS011;5987;53.140;8.904;2023-02-15T07:00:32;54.33;;;17.17;;
11854;SDS011;5987;53.140;8.904;2023-02-15T07:03:49;56.17;;;16.63;;
11854;SDS011;5987;53.140;8.904;2023-02-15T07:07:14;119.97;;;19.07;;
11854;SDS011;5987;53.140;8.904;2023-02-15T07:10:19;75.70;;;19.50;;
11854;SDS011;5987;53.140;8.904;2023-02-15T07:13:23;83.20;;;17.63;;
11854;SDS011;5987;53.140;8.904;2023-02-15T07:16:26;87.10;;;17.73;;
11854;SDS011;5987;53.140;8.904;2023-02-15T07:19:31;76.20;;;17.73;;
11854;SDS011;5987;53.140;8.904;2023-02-15T07:22:36;44.83;;;15.50;;
11854;SDS011;5987;53.140;8.904;2023-02-15T07:25:40;54.17;;;16.20;;
11854;SDS011;5987;53.140;8.904;2023-02-15T07:28:44;45.10;;;15.13;;
11854;SDS011;5987;53.140;8.904;2023-02-15T07:31:48;51.10;;;15.53;;
11854;SDS011;5987;53.140;8.904;2023-02-15T07:34:52;74.87;;;17.43;;
11854;SDS011;5987;53.140;8.904;2023-02-15T07:37:57;80.43;;;17.00;;
11854;SDS011;5987;53.140;8.904;2023-02-15T07:41:05;71.67;;;19.97;;
11854;SDS011;5987;53.140;8.904;2023-02-15T07:44:16;50.93;;;18.30;;
11854;SDS011;5987;53.140;8.904;2023-02-15T07:47:20;81.00;;;17.87;;
11854;SDS011;5987;53.140;8.904;2023-02-15T07:50:24;58.73;;;18.13;;
11854;SDS011;5987;53.140;8.904;2023-02-15T07:53:30;52.53;;;16.00;;
11854;SDS011;5987;53.140;8.904;2023-02-15T07:56:36;40.83;;;16.40;;
11854;SDS011;5987;53.140;8.904;2023-02-15T07:59:51;41.77;;;16.53;;
11854;SDS011;5987;53.140;8.904;2023-02-15T08:02:56;60.03;;;18.37;;
11854;SDS011;5987;53.140;8.904;2023-02-15T08:06:21;70.10;;;17.67;;
11854;SDS011;5987;53.140;8.904;2023-02-15T08:09:29;60.10;;;18.73;;
11854;SDS011;5987;53.140;8.904;2023-02-15T08:12:33;57.43;;;16.97;;
11854;SDS011;5987;53.140;8.904;2023-02-15T08:15:37;68.27;;;18.30;;
11854;SDS011;5987;53.140;8.904;2023-02-15T08:18:41;53.37;;;17.17;;
11854;SDS011;5987;53.140;8.904;2023-02-15T08:21:45;56.13;;;17.93;;
11854;SDS011;5987;53.140;8.904;2023-02-15T08:24:53;42.20;;;16.57;;
11854;SDS011;5987;53.140;8.904;2023-02-15T08:27:56;99.50;;;20.33;;
11854;SDS011;5987;53.140;8.904;2023-02-15T08:31:03;79.10;;;19.67;;
11854;SDS011;5987;53.140;8.904;2023-02-15T08:34:09;100.50;;;20.63;;
11854;SDS011;5987;53.140;8.904;2023-02-15T08:37:16;64.33;;;17.53;;
11854;SDS011;5987;53.140;8.904;2023-02-15T08:40:22;47.67;;;17.90;;
11854;SDS011;5987;53.140;8.904;2023-02-15T08:43:26;53.03;;;16.03;;
11854;SDS011;5987;53.140;8.904;2023-02-15T08:46:33;62.17;;;19.63;;
11854;SDS011;5987;53.140;8.904;2023-02-15T08:49:39;55.40;;;19.40;;
11854;SDS011;5987;53.140;8.904;2023-02-15T08:52:43;61.13;;;18.67;;
11854;SDS011;5987;53.140;8.904;2023-02-15T08:55:48;53.90;;;19.27;;
11854;SDS011;5987;53.140;8.904;2023-02-15T08:58:59;34.63;;;18.60;;
11854;SDS011;5987;53.140;8.904;2023-02-15T09:02:04;45.87;;;17.27;;
11854;SDS011;5987;53.140;8.904;2023-02-15T09:05:08;28.23;;;16.20;;
11854;SDS011;5987;53.140;8.904;2023-02-15T09:08:12;30.30;;;17.50;;
11854;SDS011;5987;53.140;8.904;2023-02-15T09:11:18;32.43;;;17.37;;
11854;SDS011;5987;53.140;8.904;2023-02-15T09:14:25;32.87;;;18.10;;
11854;SDS011;5987;53.140;8.904;2023-02-15T09:17:30;32.87;;;17.87;;
11854;SDS011;5987;53.140;8.904;2023-02-15T09:20:35;31.53;;;17.83;;
11854;SDS011;5987;53.140;8.904;2023-02-15T09:23:39;30.10;;;16.83;;
11854;SDS011;5987;53.140;8.904;2023-02-15T09:26:45;22.97;;;15.37;;
11854;SDS011;5987;53.140;8.904;2023-02-15T09:29:51;50.33;;;17.83;;
11854;SDS011;5987;53.140;8.904;2023-02-15T09:32:55;28.00;;;17.07;;
11854;SDS011;5987;53.140;8.904;2023-02-15T09:35:59;29.37;;;17.80;;
11854;SDS011;5987;53.140;8.904;2023-02-15T09:39:04;31.60;;;18.33;;
11854;SDS011;5987;53.140;8.904;2023-02-15T09:42:24;26.63;;;17.00;;
11854;SDS011;5987;53.140;8.904;2023-02-15T09:45:54;28.73;;;18.30;;
11854;SDS011;5987;53.140;8.904;2023-02-15T09:49:16;28.07;;;17.17;;
11854;SDS011;5987;53.140;8.904;2023-02-15T09:52:44;28.97;;;18.37;;
11854;SDS011;5987;53.140;8.904;2023-02-15T09:56:13;28.77;;;17.13;;
11854;SDS011;5987;53.140;8.904;2023-02-15T09:59:28;27.23;;;17.27;;
11854;SDS011;5987;53.140;8.904;2023-02-15T10:02:52;28.37;;;18.37;;
11854;SDS011;5987;53.140;8.904;2023-02-15T10:06:21;26.03;;;16.73;;
11854;SDS011;5987;53.140;8.904;2023-02-15T10:09:53;26.17;;;18.77;;
11854;SDS011;5987;53.140;8.904;2023-02-15T10:13:18;26.37;;;16.70;;
11854;SDS011;5987;53.140;8.904;2023-02-15T10:16:38;26.87;;;17.37;;
11854;SDS011;5987;53.140;8.904;2023-02-15T10:20:00;28.50;;;18.47;;
11854;SDS011;5987;53.140;8.904;2023-02-15T10:23:25;27.80;;;19.63;;
11854;SDS011;5987;53.140;8.904;2023-02-15T10:26:47;26.97;;;18.67;;
11854;SDS011;5987;53.140;8.904;2023-02-15T10:29:56;27.67;;;19.33;;
11854;SDS011;5987;53.140;8.904;2023-02-15T10:33:16;27.27;;;18.40;;
11854;SDS011;5987;53.140;8.904;2023-02-15T10:36:48;29.10;;;18.63;;
11854;SDS011;5987;53.140;8.904;2023-02-15T10:40:22;26.10;;;18.47;;
11854;SDS011;5987;53.140;8.904;2023-02-15T10:43:46;28.93;;;19.67;;
11854;SDS011;5987;53.140;8.904;2023-02-15T10:47:20;28.67;;;20.63;;
11854;SDS011;5987;53.140;8.904;2023-02-15T10:50:51;38.33;;;24.03;;
11854;SDS011;5987;53.140;8.904;2023-02-15T10:54:02;36.20;;;23.53;;
11854;SDS011;5987;53.140;8.904;2023-02-15T10:57:26;39.53;;;24.07;;
11854;SDS011;5987;53.140;8.904;2023-02-15T11:00:44;36.43;;;21.83;;
11854;SDS011;5987;53.140;8.904;2023-02-15T11:04:08;35.70;;;23.43;;
11854;SDS011;5987;53.140;8.904;2023-02-15T11:07:47;35.47;;;23.73;;
11854;SDS011;5987;53.140;8.904;2023-02-15T11:10:56;37.17;;;24.17;;
11854;SDS011;5987;53.140;8.904;2023-02-15T11:14:10;38.43;;;21.33;;
11854;SDS011;5987;53.140;8.904;2023-02-15T11:17:22;32.90;;;21.70;;
11854;SDS011;5987;53.140;8.904;2023-02-15T11:20:35;31.83;;;21.37;;
11854;SDS011;5987;53.140;8.904;2023-02-15T11:23:49;31.47;;;21.90;;
11854;SDS011;5987;53.140;8.904;2023-02-15T11:26:56;32.53;;;22.77;;
11854;SDS011;5987;53.140;8.904;2023-02-15T11:30:09;29.80;;;20.97;;
11854;SDS011;5987;53.140;8.904;2023-02-15T11:33:18;30.20;;;21.63;;
11854;SDS011;5987;53.140;8.904;2023-02-15T11:36:26;28.50;;;20.23;;
11854;SDS011;5987;53.140;8.904;2023-02-15T11:39:37;27.47;;;19.87;;
11854;SDS011;5987;53.140;8.904;2023-02-15T11:42:41;31.23;;;20.57;;
11854;SDS011;5987;53.140;8.904;2023-02-15T11:45:46;27.30;;;20.77;;
11854;SDS011;5987;53.140;8.904;2023-02-15T11:48:50;29.73;;;21.13;;
11854;SDS011;5987;53.140;8.904;2023-02-15T11:51:54;32.17;;;21.20;;
11854;SDS011;5987;53.140;8.904;2023-02-15T11:55:01;31.47;;;19.83;;
11854;SDS011;5987;53.140;8.904;2023-02-15T11:58:20;30.13;;;21.27;;
11854;SDS011;5987;53.140;8.904;2023-02-15T12:01:33;30.87;;;21.50;;
11854;SDS011;5987;53.140;8.904;2023-02-15T12:04:44;30.83;;;19.90;;
11854;SDS011;5987;53.140;8.904;2023-02-15T12:07:55;33.70;;;20.37;;
11854;SDS011;5987;53.140;8.904;2023-02-15T12:11:11;26.40;;;19.77;;
11854;SDS011;5987;53.140;8.904;2023-02-15T12:14:23;32.43;;;20.30;;
11854;SDS011;5987;53.140;8.904;2023-02-15T12:17:27;28.23;;;20.57;;
11854;SDS011;5987;53.140;8.904;2023-02-15T12:20:35;31.97;;;21.00;;
11854;SDS011;5987;53.140;8.904;2023-02-15T12:23:42;31.30;;;20.63;;
11854;SDS011;5987;53.140;8.904;2023-02-15T12:27:00;30.20;;;19.97;;
11854;SDS011;5987;53.140;8.904;2023-02-15T12:30:14;32.60;;;20.57;;
11854;SDS011;5987;53.140;8.904;2023-02-15T12:33:26;28.80;;;21.23;;
11854;SDS011;5987;53.140;8.904;2023-02-15T12:36:40;32.30;;;19.57;;
11854;SDS011;5987;53.140;8.904;2023-02-15T12:39:53;30.07;;;20.43;;
11854;SDS011;5987;53.140;8.904;2023-02-15T12:43:00;30.97;;;20.30;;
11854;SDS011;5987;53.140;8.904;2023-02-15T12:46:14;29.20;;;20.83;;
11854;SDS011;5987;53.140;8.904;2023-02-15T12:49:25;29.30;;;20.93;;
11854;SDS011;5987;53.140;8.904;2023-02-15T12:52:30;25.80;;;19.50;;
11854;SDS011;5987;53.140;8.904;2023-02-15T12:55:34;32.60;;;20.90;;
11854;SDS011;5987;53.140;8.904;2023-02-15T12:58:46;30.77;;;20.47;;
11854;SDS011;5987;53.140;8.904;2023-02-15T13:01:50;29.70;;;21.27;;
11854;SDS011;5987;53.140;8.904;2023-02-15T13:04:56;27.50;;;19.87;;
11854;SDS011;5987;53.140;8.904;2023-02-15T13:08:16;28.33;;;20.47;;
11854;SDS011;5987;53.140;8.904;2023-02-15T13:11:25;30.67;;;20.07;;
11854;SDS011;5987;53.140;8.904;2023-02-15T13:14:37;31.53;;;20.93;;
11854;SDS011;5987;53.140;8.904;2023-02-15T13:17:47;28.90;;;18.63;;
11854;SDS011;5987;53.140;8.904;2023-02-15T13:20:51;29.50;;;21.73;;
11854;SDS011;5987;53.140;8.904;2023-02-15T13:23:57;29.67;;;22.03;;
11854;SDS011;5987;53.140;8.904;2023-02-15T13:27:08;31.40;;;22.53;;
11854;SDS011;5987;53.140;8.904;2023-02-15T13:30:25;33.40;;;23.30;;
11854;SDS011;5987;53.140;8.904;2023-02-15T13:33:34;31.07;;;21.73;;
11854;SDS011;5987;53.140;8.904;2023-02-15T13:36:42;31.07;;;21.10;;
11854;SDS011;5987;53.140;8.904;2023-02-15T13:39:57;33.33;;;21.90;;
11854;SDS011;5987;53.140;8.904;2023-02-15T13:43:13;32.67;;;22.07;;
11854;SDS011;5987;53.140;8.904;2023-02-15T13:46:42;34.77;;;22.37;;
11854;SDS011;5987;53.140;8.904;2023-02-15T13:50:03;31.10;;;21.27;;
11854;SDS011;5987;53.140;8.904;2023-02-15T13:53:36;29.57;;;21.10;;
11854;SDS011;5987;53.140;8.904;2023-02-15T13:57:14;34.87;;;23.27;;
11854;SDS011;5987;53.140;8.904;2023-02-15T14:00:38;33.03;;;22.63;;
11854;SDS011;5987;53.140;8.904;2023-02-15T14:03:58;34.70;;;22.97;;
11854;SDS011;5987;53.140;8.904;2023-02-15T14:07:24;34.90;;;22.63;;
11854;SDS011;5987;53.140;8.904;2023-02-15T14:10:51;36.47;;;23.13;;
11854;SDS011;5987;53.140;8.904;2023-02-15T14:14:11;37.07;;;23.20;;
11854;SDS011;5987;53.140;8.904;2023-02-15T14:17:45;38.00;;;22.17;;
11854;SDS011;5987;53.140;8.904;2023-02-15T14:21:06;35.70;;;23.17;;
11854;SDS011;5987;53.140;8.904;2023-02-15T14:24:28;39.50;;;23.87;;
11854;SDS011;5987;53.140;8.904;2023-02-15T14:27:43;35.87;;;23.23;;
11854;SDS011;5987;53.140;8.904;2023-02-15T14:30:58;34.33;;;23.43;;
11854;SDS011;5987;53.140;8.904;2023-02-15T14:34:11;37.50;;;23.93;;
11854;SDS011;5987;53.140;8.904;2023-02-15T14:37:29;36.07;;;23.83;;
11854;SDS011;5987;53.140;8.904;2023-02-15T14:40:50;37.43;;;21.83;;
11854;SDS011;5987;53.140;8.904;2023-02-15T14:44:06;41.03;;;23.63;;
11854;SDS011;5987;53.140;8.904;2023-02-15T14:47:21;33.90;;;21.13;;
11854;SDS011;5987;53.140;8.904;2023-02-15T14:50:42;37.23;;;22.10;;
11854;SDS011;5987;53.140;8.904;2023-02-15T14:53:50;35.53;;;21.53;;
11854;SDS011;5987;53.140;8.904;2023-02-15T15:00:37;33.87;;;20.73;;
11854;SDS011;5987;53.140;8.904;2023-02-15T15:03:43;31.43;;;20.83;;
11854;SDS011;5987;53.140;8.904;2023-02-15T15:07:00;33.43;;;19.77;;
11854;SDS011;5987;53.140;8.904;2023-02-15T15:13:52;39.00;;;22.77;;
11854;SDS011;5987;53.140;8.904;2023-02-15T15:16:59;36.30;;;21.97;;
11854;SDS011;5987;53.140;8.904;2023-02-15T15:20:08;35.83;;;24.50;;
11854;SDS011;5987;53.140;8.904;2023-02-15T15:23:39;35.90;;;21.53;;
11854;SDS011;5987;53.140;8.904;2023-02-15T15:26:49;32.43;;;20.90;;
11854;SDS011;5987;53.140;8.904;2023-02-15T15:34:17;34.10;;;20.37;;
11854;SDS011;5987;53.140;8.904;2023-02-15T15:38:20;38.07;;;21.70;;
11854;SDS011;5987;53.140;8.904;2023-02-15T15:41:46;36.60;;;20.87;;
11854;SDS011;5987;53.140;8.904;2023-02-15T15:48:45;35.03;;;19.27;;
11854;SDS011;5987;53.140;8.904;2023-02-15T15:51:49;31.00;;;18.53;;
11854;SDS011;5987;53.140;8.904;2023-02-15T15:54:56;31.17;;;18.73;;
11854;SDS011;5987;53.140;8.904;2023-02-15T15:58:07;33.27;;;19.13;;
11854;SDS011;5987;53.140;8.904;2023-02-15T16:01:12;25.97;;;17.17;;
11854;SDS011;5987;53.140;8.904;2023-02-15T16:04:22;28.00;;;17.43;;
11854;SDS011;5987;53.140;8.904;2023-02-15T16:07:28;26.23;;;17.07;;
11854;SDS011;5987;53.140;8.904;2023-02-15T16:10:32;32.23;;;19.57;;
11854;SDS011;5987;53.140;8.904;2023-02-15T16:13:41;24.57;;;16.37;;
11854;SDS011;5987;53.140;8.904;2023-02-15T16:16:46;28.33;;;18.50;;
11854;SDS011;5987;53.140;8.904;2023-02-15T16:19:57;33.60;;;18.80;;
11854;SDS011;5987;53.140;8.904;2023-02-15T16:23:16;32.90;;;20.93;;
11854;SDS011;5987;53.140;8.904;2023-02-15T16:26:54;32.33;;;20.83;;
11854;SDS011;5987;53.140;8.904;2023-02-15T16:30:28;29.80;;;19.50;;
11854;SDS011;5987;53.140;8.904;2023-02-15T16:33:35;30.17;;;17.97;;
11854;SDS011;5987;53.140;8.904;2023-02-15T16:36:40;31.30;;;19.67;;
11854;SDS011;5987;53.140;8.904;2023-02-15T16:39:44;27.53;;;17.50;;
11854;SDS011;5987;53.140;8.904;2023-02-15T16:42:50;28.77;;;18.13;;
11854;SDS011;5987;53.140;8.904;2023-02-15T16:46:02;29.30;;;18.57;;
11854;SDS011;5987;53.140;8.904;2023-02-15T16:49:14;35.73;;;20.67;;
11854;SDS011;5987;53.140;8.904;2023-02-15T16:52:22;33.23;;;20.80;;
11854;SDS011;5987;53.140;8.904;2023-02-15T16:55:30;32.00;;;20.83;;
11854;SDS011;5987;53.140;8.904;2023-02-15T16:58:41;27.57;;;18.27;;
11854;SDS011;5987;53.140;8.904;2023-02-15T17:01:50;26.37;;;18.03;;
11854;SDS011;5987;53.140;8.904;2023-02-15T17:05:07;29.23;;;19.90;;
11854;SDS011;5987;53.140;8.904;2023-02-15T17:08:23;29.57;;;19.00;;
11854;SDS011;5987;53.140;8.904;2023-02-15T17:11:35;30.40;;;18.73;;
11854;SDS011;5987;53.140;8.904;2023-02-15T17:14:43;34.60;;;20.07;;
11854;SDS011;5987;53.140;8.904;2023-02-15T17:17:48;33.27;;;19.10;;
11854;SDS011;5987;53.140;8.904;2023-02-15T17:20:53;28.47;;;18.10;;
11854;SDS011;5987;53.140;8.904;2023-02-15T17:24:01;27.80;;;19.13;;
11854;SDS011;5987;53.140;8.904;2023-02-15T17:27:10;34.10;;;20.20;;
11854;SDS011;5987;53.140;8.904;2023-02-15T17:30:22;34.27;;;20.27;;
11854;SDS011;5987;53.140;8.904;2023-02-15T17:33:36;31.63;;;19.37;;
11854;SDS011;5987;53.140;8.904;2023-02-15T17:36:51;33.83;;;20.63;;
11854;SDS011;5987;53.140;8.904;2023-02-15T17:40:01;28.83;;;19.27;;
11854;SDS011;5987;53.140;8.904;2023-02-15T17:43:22;31.27;;;19.80;;
11854;SDS011;5987;53.140;8.904;2023-02-15T17:46:26;32.43;;;20.80;;
11854;SDS011;5987;53.140;8.904;2023-02-15T17:49:38;32.70;;;20.03;;
11854;SDS011;5987;53.140;8.904;2023-02-15T17:52:41;32.30;;;19.60;;
11854;SDS011;5987;53.140;8.904;2023-02-15T17:55:45;34.90;;;19.43;;
11854;SDS011;5987;53.140;8.904;2023-02-15T17:58:49;34.07;;;20.97;;
11854;SDS011;5987;53.140;8.904;2023-02-15T18:01:53;31.07;;;21.83;;
11854;SDS011;5987;53.140;8.904;2023-02-15T18:05:16;46.80;;;33.73;;
11854;SDS011;5987;53.140;8.904;2023-02-15T18:08:37;70.03;;;42.63;;
11854;SDS011;5987;53.140;8.904;2023-02-15T18:11:59;32.20;;;20.83;;
11854;SDS011;5987;53.140;8.904;2023-02-15T18:15:05;31.00;;;21.13;;
11854;SDS011;5987;53.140;8.904;2023-02-15T18:18:13;35.63;;;23.03;;
11854;SDS011;5987;53.140;8.904;2023-02-15T18:21:18;33.07;;;20.33;;
11854;SDS011;5987;53.140;8.904;2023-02-15T18:24:23;29.93;;;19.27;;
11854;SDS011;5987;53.140;8.904;2023-02-15T18:27:28;33.90;;;19.30;;
11854;SDS011;5987;53.140;8.904;2023-02-15T18:30:32;43.87;;;26.97;;
11854;SDS011;5987;53.140;8.904;2023-02-15T18:33:38;33.90;;;21.00;;
11854;SDS011;5987;53.140;8.904;2023-02-15T18:36:46;31.60;;;21.27;;
11854;SDS011;5987;53.140;8.904;2023-02-15T18:39:51;33.73;;;21.53;;
11854;SDS011;5987;53.140;8.904;2023-02-15T18:42:56;31.47;;;19.80;;
11854;SDS011;5987;53.140;8.904;2023-02-15T18:46:00;32.00;;;19.97;;
11854;SDS011;5987;53.140;8.904;2023-02-15T18:49:03;34.40;;;21.67;;
11854;SDS011;5987;53.140;8.904;2023-02-15T18:52:09;31.77;;;20.70;;
11854;SDS011;5987;53.140;8.904;2023-02-15T18:55:19;34.40;;;20.67;;
11854;SDS011;5987;53.140;8.904;2023-02-15T18:58:25;32.20;;;20.20;;
11854;SDS011;5987;53.140;8.904;2023-02-15T19:01:29;34.83;;;21.53;;
11854;SDS011;5987;53.140;8.904;2023-02-15T19:04:35;42.67;;;26.37;;
11854;SDS011;5987;53.140;8.904;2023-02-15T19:07:41;33.13;;;23.07;;
11854;SDS011;5987;53.140;8.904;2023-02-15T19:10:49;36.33;;;23.80;;
11854;SDS011;5987;53.140;8.904;2023-02-15T19:13:53;35.83;;;23.23;;
11854;SDS011;5987;53.140;8.904;2023-02-15T19:16:58;38.53;;;23.90;;
11854;SDS011;5987;53.140;8.904;2023-02-15T19:20:02;35.37;;;22.53;;
11854;SDS011;5987;53.140;8.904;2023-02-15T19:23:11;36.90;;;23.03;;
11854;SDS011;5987;53.140;8.904;2023-02-15T19:26:20;35.63;;;22.37;;